createdAt,value
2022-12-26T00:00:47.140Z,3.13
2022-12-26T00:01:52.062Z,3.70
2022-12-26T00:02:54.429Z,3.30
2022-12-26T00:03:57.193Z,3.78
2022-12-26T00:04:59.709Z,3.13
2022-12-26T00:06:02.138Z,3.25
2022-12-26T00:07:04.640Z,3.10
2022-12-26T00:08:07.917Z,3.33
2022-12-26T00:09:10.891Z,2.95
2022-12-26T00:10:13.234Z,3.20
2022-12-26T00:11:16.403Z,3.30
2022-12-26T00:12:18.744Z,2.53
2022-12-26T00:13:38.500Z,3.05
2022-12-26T00:14:43.306Z,3.05
2022-12-26T00:15:45.723Z,3.03
2022-12-26T00:16:48.155Z,2.67
2022-12-26T00:17:50.494Z,3.00
2022-12-26T00:18:53.730Z,3.20
2022-12-26T00:19:56.031Z,3.60
2022-12-26T00:20:58.392Z,3.15
2022-12-26T00:22:00.801Z,3.40
2022-12-26T00:23:03.163Z,3.30
2022-12-26T00:24:05.877Z,3.20
2022-12-26T00:25:08.425Z,3.00
2022-12-26T00:26:16.324Z,3.00
2022-12-26T00:27:18.661Z,3.30
2022-12-26T00:28:21.083Z,3.13
2022-12-26T00:29:23.508Z,3.00
2022-12-26T00:30:25.813Z,3.22
2022-12-26T00:31:31.958Z,3.03
2022-12-26T00:32:34.292Z,3.03
2022-12-26T00:33:37.335Z,3.00
2022-12-26T00:34:40.488Z,2.92
2022-12-26T00:35:42.806Z,2.88
2022-12-26T00:36:45.594Z,3.33
2022-12-26T00:37:47.905Z,2.85
2022-12-26T00:38:52.193Z,2.72
2022-12-26T00:39:54.591Z,3.17
2022-12-26T00:40:57.998Z,2.53
2022-12-26T00:42:00.326Z,2.90
2022-12-26T00:43:02.611Z,3.03
2022-12-26T00:44:04.931Z,2.95
2022-12-26T00:45:07.864Z,2.58
2022-12-26T00:46:11.065Z,2.88
2022-12-26T00:47:13.441Z,2.40
2022-12-26T00:48:15.767Z,2.90
2022-12-26T00:49:18.090Z,2.47
2022-12-26T00:50:20.421Z,2.80
2022-12-26T00:51:22.767Z,2.95
2022-12-26T00:52:25.320Z,2.85
2022-12-26T00:53:28.164Z,2.75
2022-12-26T00:54:31.377Z,2.90
2022-12-26T00:55:33.649Z,2.92
2022-12-26T00:56:35.940Z,3.08
2022-12-26T00:57:38.258Z,2.55
2022-12-26T00:58:42.086Z,2.45
2022-12-26T00:59:44.451Z,3.05
2022-12-26T01:00:47.558Z,2.42
2022-12-26T01:01:50.206Z,2.50
2022-12-26T01:02:52.786Z,2.50
2022-12-26T01:03:55.510Z,2.60
2022-12-26T01:04:57.924Z,2.90
2022-12-26T01:06:02.875Z,2.85
2022-12-26T01:07:05.235Z,2.75
2022-12-26T01:08:22.442Z,2.90
2022-12-26T01:09:26.296Z,2.55
2022-12-26T01:10:28.701Z,2.97
2022-12-26T01:11:40.208Z,2.70
2022-12-26T01:12:42.779Z,2.33
2022-12-26T01:13:45.063Z,2.72
2022-12-26T01:14:47.675Z,2.40
2022-12-26T01:15:51.409Z,2.53
2022-12-26T01:16:53.808Z,2.40
2022-12-26T01:17:56.123Z,2.67
2022-12-26T01:18:58.506Z,2.50
2022-12-26T01:20:01.165Z,2.60
2022-12-26T01:21:07.017Z,2.20
2022-12-26T01:22:09.484Z,1.90
2022-12-26T01:23:11.842Z,2.25
2022-12-26T01:24:14.120Z,2.20
2022-12-26T01:25:16.475Z,2.40
2022-12-26T01:26:20.328Z,2.25
2022-12-26T01:27:24.788Z,2.30
2022-12-26T01:28:27.098Z,2.40
2022-12-26T01:29:29.462Z,2.20
2022-12-26T01:30:31.815Z,2.30
2022-12-26T01:31:34.222Z,2.53
2022-12-26T01:32:36.581Z,2.17
2022-12-26T01:33:38.899Z,2.30
2022-12-26T01:34:41.406Z,2.03
2022-12-26T01:35:51.634Z,1.70
2022-12-26T01:36:54.361Z,2.20
2022-12-26T01:37:56.710Z,2.17
2022-12-26T01:38:59.101Z,1.80
2022-12-26T01:40:01.482Z,2.00
2022-12-26T01:41:22.144Z,1.98
2022-12-26T01:42:26.235Z,1.92
2022-12-26T01:43:50.159Z,2.05
2022-12-26T01:45:01.956Z,1.63
2022-12-26T01:46:04.345Z,2.00
2022-12-26T01:47:06.924Z,1.63
2022-12-26T01:48:35.678Z,1.70
2022-12-26T01:49:42.999Z,1.98
2022-12-26T01:50:54.420Z,2.35
2022-12-26T01:53:07.500Z,1.52
2022-12-26T01:54:39.774Z,2.30
2022-12-26T01:55:34.420Z,1.70
2022-12-26T01:56:39.660Z,2.08
2022-12-26T01:57:50.020Z,1.77
2022-12-26T01:59:01.019Z,1.48
2022-12-26T02:00:06.227Z,1.85
2022-12-26T02:01:16.236Z,1.65
2022-12-26T02:02:21.825Z,1.90
2022-12-26T02:03:43.130Z,1.75
2022-12-26T02:05:09.286Z,1.60
2022-12-26T02:06:14.299Z,1.67
2022-12-26T02:07:16.792Z,1.70
2022-12-26T02:08:23.983Z,1.60
2022-12-26T02:09:26.477Z,1.38
2022-12-26T02:10:31.084Z,1.65
2022-12-26T02:11:44.631Z,1.65
2022-12-26T02:12:48.316Z,1.52
2022-12-26T02:13:50.749Z,1.50
2022-12-26T02:14:53.087Z,1.55
2022-12-26T02:15:56.626Z,1.60
2022-12-26T02:16:59.055Z,1.30
2022-12-26T02:18:01.411Z,1.52
2022-12-26T02:19:06.403Z,1.52
2022-12-26T02:20:22.312Z,1.70
2022-12-26T02:21:43.724Z,1.85
2022-12-26T02:23:07.096Z,1.45
2022-12-26T02:24:39.026Z,1.77
2022-12-26T02:27:30.604Z,1.55
2022-12-26T02:28:49.166Z,1.42
2022-12-26T02:29:57.865Z,1.65
2022-12-26T02:31:31.717Z,1.50
2022-12-26T02:32:52.998Z,1.35
2022-12-26T02:34:11.616Z,1.30
2022-12-26T02:35:44.313Z,1.55
2022-12-26T02:37:08.521Z,1.42
2022-12-26T02:38:47.470Z,1.50
2022-12-26T02:40:28.508Z,1.42
2022-12-26T02:41:30.720Z,1.17
2022-12-26T02:42:39.073Z,1.70
2022-12-26T02:43:47.974Z,1.50
2022-12-26T02:45:37.189Z,1.60
2022-12-26T02:47:04.541Z,1.70
2022-12-26T02:48:27.710Z,1.60
2022-12-26T02:50:01.047Z,1.52
2022-12-26T02:51:37.804Z,1.30
2022-12-26T02:53:13.523Z,1.40
2022-12-26T02:54:45.930Z,1.65
2022-12-26T02:56:10.565Z,1.92
2022-12-26T02:57:37.772Z,1.65
2022-12-26T02:59:56.271Z,1.77
2022-12-26T03:01:06.127Z,1.50
2022-12-26T03:02:41.331Z,1.40
2022-12-26T03:04:04.763Z,1.33
2022-12-26T03:05:33.785Z,1.25
2022-12-26T03:06:56.336Z,1.40
2022-12-26T03:08:19.160Z,1.30
2022-12-26T03:09:50.854Z,1.40
2022-12-26T03:11:13.159Z,1.50
2022-12-26T03:12:52.613Z,1.60
2022-12-26T03:13:59.593Z,1.85
2022-12-26T03:15:05.470Z,1.20
2022-12-26T03:16:31.093Z,1.38
2022-12-26T03:17:39.599Z,7.35
2022-12-26T03:18:58.941Z,70.22
2022-12-26T03:20:05.866Z,104.38
2022-12-26T03:21:09.724Z,56.35
2022-12-26T03:22:30.522Z,34.38
2022-12-26T03:23:34.625Z,22.80
2022-12-26T03:24:59.883Z,18.83
2022-12-26T03:26:27.821Z,14.68
2022-12-26T03:27:30.146Z,12.10
2022-12-26T03:28:32.735Z,10.32
2022-12-26T03:29:53.765Z,10.10
2022-12-26T03:30:59.599Z,8.15
2022-12-26T03:32:05.079Z,8.20
2022-12-26T03:33:30.547Z,6.72
2022-12-26T03:34:36.989Z,6.38
2022-12-26T03:35:39.874Z,7.10
2022-12-26T03:37:07.811Z,5.80
2022-12-26T03:38:15.388Z,5.93
2022-12-26T03:40:00.698Z,5.43
2022-12-26T03:41:32.400Z,6.03
2022-12-26T03:43:07.924Z,5.43
2022-12-26T03:44:41.211Z,27.85
2022-12-26T03:46:12.808Z,18.42
2022-12-26T03:47:40.501Z,63.40
2022-12-26T03:49:41.935Z,59.88
2022-12-26T03:51:07.674Z,45.15
2022-12-26T03:52:43.666Z,32.97
2022-12-26T03:54:21.150Z,30.77
2022-12-26T03:56:07.249Z,45.47
2022-12-26T03:57:35.182Z,29.10
2022-12-26T03:59:26.529Z,23.40
2022-12-26T04:00:48.565Z,24.58
2022-12-26T04:02:10.715Z,24.25
2022-12-26T04:03:32.729Z,24.35
2022-12-26T04:04:58.916Z,18.52
2022-12-26T04:06:22.520Z,20.33
2022-12-26T04:07:58.233Z,18.30
2022-12-26T04:09:38.384Z,17.85
2022-12-26T04:11:05.698Z,18.60
2022-12-26T04:12:34.279Z,16.33
2022-12-26T04:14:20.313Z,16.92
2022-12-26T04:15:48.141Z,14.25
2022-12-26T04:17:46.493Z,17.30
2022-12-26T04:19:25.789Z,12.45
2022-12-26T04:20:48.903Z,9.68
2022-12-26T04:22:36.635Z,7.95
2022-12-26T04:24:04.120Z,7.15
2022-12-26T04:25:49.417Z,5.90
2022-12-26T04:27:17.157Z,6.50
2022-12-26T04:28:39.844Z,80.78
2022-12-26T04:30:00.872Z,53.67
2022-12-26T04:31:32.131Z,24.65
2022-12-26T04:33:08.018Z,18.13
2022-12-26T04:34:38.659Z,15.20
2022-12-26T04:36:12.397Z,90.22
2022-12-26T04:37:39.643Z,38.60
2022-12-26T04:39:08.659Z,31.27
2022-12-26T04:40:36.523Z,22.50
2022-12-26T04:41:59.128Z,17.15
2022-12-26T04:43:50.114Z,20.95
2022-12-26T04:45:47.083Z,13.18
2022-12-26T04:46:50.969Z,11.23
2022-12-26T04:48:11.893Z,9.52
2022-12-26T04:49:35.914Z,9.30
2022-12-26T04:50:50.521Z,8.93
2022-12-26T04:51:54.478Z,8.45
2022-12-26T04:53:00.479Z,9.40
2022-12-26T04:54:04.466Z,8.27
2022-12-26T04:55:07.262Z,8.00
2022-12-26T04:56:10.854Z,8.07
2022-12-26T04:57:13.237Z,7.30
2022-12-26T04:58:15.713Z,7.60
2022-12-26T04:59:18.930Z,7.88
2022-12-26T05:00:24.835Z,8.18
2022-12-26T05:01:46.172Z,7.82
2022-12-26T05:03:07.277Z,7.10
2022-12-26T05:04:46.691Z,6.38
2022-12-26T05:06:09.605Z,6.28
2022-12-26T05:07:41.534Z,6.53
2022-12-26T05:10:08.548Z,5.75
2022-12-26T05:11:11.002Z,5.47
2022-12-26T05:12:13.315Z,5.70
2022-12-26T05:13:15.620Z,4.55
2022-12-26T05:14:18.183Z,5.18
2022-12-26T05:15:21.686Z,4.63
2022-12-26T05:16:43.975Z,4.57
2022-12-26T05:18:05.370Z,4.35
2022-12-26T05:19:32.372Z,4.63
2022-12-26T05:20:47.094Z,4.13
2022-12-26T05:22:08.228Z,3.83
2022-12-26T05:23:41.761Z,13.45
2022-12-26T05:25:04.412Z,27.05
2022-12-26T05:26:39.239Z,24.88
2022-12-26T05:28:03.623Z,31.35
2022-12-26T05:29:06.017Z,70.30
2022-12-26T05:30:08.750Z,50.35
2022-12-26T05:31:14.304Z,48.10
2022-12-26T05:32:35.442Z,41.38
2022-12-26T05:33:56.466Z,31.30
2022-12-26T05:34:58.760Z,26.73
2022-12-26T05:36:01.163Z,23.83
2022-12-26T05:37:03.778Z,19.23
2022-12-26T05:38:07.498Z,21.65
2022-12-26T05:39:10.259Z,18.17
2022-12-26T05:40:12.754Z,18.00
2022-12-26T05:41:15.804Z,18.27
2022-12-26T05:42:18.109Z,18.48
2022-12-26T05:43:20.432Z,19.13
2022-12-26T05:44:22.695Z,19.23
2022-12-26T05:45:25.003Z,19.67
2022-12-26T05:46:27.686Z,19.90
2022-12-26T05:47:30.122Z,20.05
2022-12-26T05:48:32.445Z,20.83
2022-12-26T05:49:34.729Z,20.33
2022-12-26T05:50:37.053Z,20.33
2022-12-26T05:51:39.452Z,19.98
2022-12-26T05:52:41.766Z,15.45
2022-12-26T05:53:44.322Z,29.98
2022-12-26T05:54:46.658Z,18.52
2022-12-26T05:55:48.891Z,17.02
2022-12-26T05:56:51.236Z,16.33
2022-12-26T05:57:53.582Z,19.10
2022-12-26T05:58:57.828Z,18.45
2022-12-26T06:00:00.179Z,20.40
2022-12-26T06:01:12.151Z,19.77
2022-12-26T06:02:14.719Z,21.58
2022-12-26T06:03:17.239Z,20.05
2022-12-26T06:04:19.615Z,20.75
2022-12-26T06:05:22.349Z,20.92
2022-12-26T06:06:26.251Z,22.48
2022-12-26T06:07:29.259Z,21.20
2022-12-26T06:08:31.651Z,22.00
2022-12-26T06:09:33.955Z,21.25
2022-12-26T06:10:36.231Z,20.98
2022-12-26T06:11:42.534Z,21.33
2022-12-26T06:12:49.186Z,21.15
2022-12-26T06:13:51.739Z,22.02
2022-12-26T06:14:54.091Z,21.58
2022-12-26T06:15:56.499Z,20.30
2022-12-26T06:16:58.853Z,21.77
2022-12-26T06:18:01.147Z,22.33
2022-12-26T06:19:03.430Z,21.17
2022-12-26T06:20:06.543Z,19.15
2022-12-26T06:21:14.772Z,19.73
2022-12-26T06:22:17.211Z,20.08
2022-12-26T06:23:19.556Z,20.30
2022-12-26T06:24:21.839Z,19.95
2022-12-26T06:25:24.113Z,18.43
2022-12-26T06:26:26.840Z,24.35
2022-12-26T06:27:29.178Z,27.65
2022-12-26T06:28:33.192Z,24.15
2022-12-26T06:29:35.745Z,22.85
2022-12-26T06:30:38.186Z,21.20
2022-12-26T06:31:40.585Z,21.17
2022-12-26T06:32:42.901Z,20.63
2022-12-26T06:33:45.229Z,21.83
2022-12-26T06:34:48.233Z,22.38
2022-12-26T06:35:50.486Z,21.67
2022-12-26T06:36:52.827Z,22.45
2022-12-26T06:37:55.174Z,21.25
2022-12-26T06:38:58.007Z,22.50
2022-12-26T06:40:00.547Z,22.58
2022-12-26T06:41:06.469Z,21.38
2022-12-26T06:42:09.658Z,20.98
2022-12-26T06:43:12.102Z,22.30
2022-12-26T06:44:18.155Z,22.08
2022-12-26T06:45:21.843Z,21.23
2022-12-26T06:46:26.199Z,20.50
2022-12-26T06:47:29.226Z,21.73
2022-12-26T06:48:32.132Z,19.85
2022-12-26T06:49:34.450Z,20.80
2022-12-26T06:50:37.247Z,21.42
2022-12-26T06:51:39.666Z,19.85
2022-12-26T06:52:42.121Z,20.88
2022-12-26T06:53:44.580Z,19.23
2022-12-26T06:54:46.882Z,21.38
2022-12-26T06:55:49.844Z,18.60
2022-12-26T06:56:52.158Z,19.85
2022-12-26T06:57:54.515Z,20.08
2022-12-26T06:58:58.906Z,20.40
2022-12-26T07:00:01.352Z,19.30
2022-12-26T07:01:15.979Z,19.65
2022-12-26T07:02:18.545Z,20.17
2022-12-26T07:03:20.993Z,19.90
2022-12-26T07:04:23.317Z,18.80
2022-12-26T07:05:25.746Z,19.20
2022-12-26T07:06:31.323Z,18.60
2022-12-26T07:07:33.834Z,19.80
2022-12-26T07:08:36.116Z,18.73
2022-12-26T07:09:38.425Z,19.33
2022-12-26T07:10:40.940Z,17.98
2022-12-26T07:11:46.132Z,18.65
2022-12-26T07:12:48.662Z,18.85
2022-12-26T07:13:51.065Z,17.98
2022-12-26T07:14:56.680Z,17.50
2022-12-26T07:16:03.839Z,18.88
2022-12-26T07:17:06.516Z,18.65
2022-12-26T07:18:08.978Z,19.05
2022-12-26T07:19:13.144Z,17.52
2022-12-26T07:20:15.424Z,19.52
2022-12-26T07:21:17.813Z,18.40
2022-12-26T07:22:20.156Z,19.13
2022-12-26T07:23:22.622Z,18.35
2022-12-26T07:24:25.138Z,18.08
2022-12-26T07:25:27.540Z,17.88
2022-12-26T07:26:30.128Z,17.98
2022-12-26T07:27:32.453Z,18.33
2022-12-26T07:28:35.235Z,17.58
2022-12-26T07:29:38.559Z,18.00
2022-12-26T07:30:46.945Z,18.45
2022-12-26T07:31:49.491Z,17.73
2022-12-26T07:32:51.965Z,17.80
2022-12-26T07:33:55.658Z,17.63
2022-12-26T07:34:58.217Z,16.70
2022-12-26T07:36:04.511Z,18.25
2022-12-26T07:37:06.886Z,16.60
2022-12-26T07:38:10.123Z,17.20
2022-12-26T07:39:14.325Z,17.33
2022-12-26T07:40:16.857Z,18.30
2022-12-26T07:41:38.178Z,16.98
2022-12-26T07:42:40.516Z,17.13
2022-12-26T07:43:42.823Z,17.20
2022-12-26T07:44:45.268Z,15.88
2022-12-26T07:45:47.677Z,16.27
2022-12-26T07:46:50.358Z,16.52
2022-12-26T07:47:56.822Z,16.98
2022-12-26T07:48:59.260Z,16.27
2022-12-26T07:50:01.808Z,17.10
2022-12-26T07:51:04.127Z,13.10
2022-12-26T07:52:06.570Z,17.10
2022-12-26T07:53:09.327Z,16.52
2022-12-26T07:54:12.444Z,14.88
2022-12-26T07:55:15.326Z,15.45
2022-12-26T07:56:17.704Z,15.15
2022-12-26T07:57:47.634Z,15.40
2022-12-26T07:58:42.360Z,14.57
2022-12-26T07:59:44.792Z,14.75
2022-12-26T08:00:47.462Z,13.48
2022-12-26T08:01:49.981Z,15.70
2022-12-26T08:02:53.312Z,15.43
2022-12-26T08:03:55.964Z,15.23
2022-12-26T08:04:58.597Z,14.82
2022-12-26T08:06:01.526Z,14.52
2022-12-26T08:07:03.893Z,15.00
2022-12-26T08:08:06.409Z,15.07
2022-12-26T08:09:13.106Z,14.40
2022-12-26T08:10:17.225Z,13.80
2022-12-26T08:11:22.672Z,13.93
2022-12-26T08:12:26.755Z,13.52
2022-12-26T08:13:30.107Z,15.50
2022-12-26T08:14:32.457Z,14.73
2022-12-26T08:15:37.590Z,13.57
2022-12-26T08:16:40.389Z,14.10
2022-12-26T08:17:44.286Z,14.02
2022-12-26T08:18:46.654Z,14.45
2022-12-26T08:19:49.611Z,14.68
2022-12-26T08:20:52.064Z,13.45
2022-12-26T08:21:54.417Z,13.95
2022-12-26T08:23:59.995Z,13.98
2022-12-26T08:25:03.435Z,14.90
2022-12-26T08:26:11.646Z,13.60
2022-12-26T08:27:17.536Z,13.98
2022-12-26T08:28:19.914Z,14.23
2022-12-26T08:29:22.181Z,12.95
2022-12-26T08:30:24.825Z,12.70
2022-12-26T08:31:27.280Z,12.73
2022-12-26T08:32:29.642Z,12.50
2022-12-26T08:33:32.005Z,12.65
2022-12-26T08:34:35.253Z,13.05
2022-12-26T08:35:38.917Z,12.52
2022-12-26T08:36:41.245Z,12.90
2022-12-26T08:37:43.867Z,12.65
2022-12-26T08:38:46.578Z,13.50
2022-12-26T08:39:49.634Z,11.93
2022-12-26T08:40:56.203Z,12.48
2022-12-26T08:41:59.135Z,12.13
2022-12-26T08:43:22.107Z,12.88
2022-12-26T08:44:27.299Z,11.88
2022-12-26T08:45:30.694Z,12.23
2022-12-26T08:46:33.196Z,11.93
2022-12-26T08:47:36.028Z,12.23
2022-12-26T08:48:40.069Z,30.88
2022-12-26T08:49:42.416Z,34.58
2022-12-26T08:50:44.748Z,26.10
2022-12-26T08:51:47.091Z,28.30
2022-12-26T08:52:49.440Z,29.08
2022-12-26T08:53:54.264Z,29.17
2022-12-26T08:54:56.715Z,27.65
2022-12-26T08:55:59.790Z,25.55
2022-12-26T08:57:02.252Z,25.95
2022-12-26T08:58:04.829Z,25.75
2022-12-26T08:59:07.206Z,25.10
2022-12-26T09:00:10.383Z,25.67
2022-12-26T09:01:18.501Z,23.48
2022-12-26T09:02:21.458Z,24.67
2022-12-26T09:03:23.928Z,24.83
2022-12-26T09:04:28.005Z,23.98
2022-12-26T09:05:31.732Z,23.27
2022-12-26T09:06:39.628Z,22.65
2022-12-26T09:07:41.963Z,23.67
2022-12-26T09:08:45.238Z,23.50
2022-12-26T09:09:48.611Z,22.20
2022-12-26T09:10:50.901Z,21.83
2022-12-26T09:11:53.245Z,22.10
2022-12-26T09:12:55.544Z,22.48
2022-12-26T09:14:01.247Z,22.17
2022-12-26T09:15:04.039Z,21.85
2022-12-26T09:16:19.130Z,22.08
2022-12-26T09:17:21.575Z,21.38
2022-12-26T09:18:23.943Z,19.92
2022-12-26T09:19:29.713Z,19.85
2022-12-26T09:20:33.520Z,20.38
2022-12-26T09:21:35.962Z,18.73
2022-12-26T09:22:50.442Z,19.30
2022-12-26T09:24:00.234Z,18.85
2022-12-26T09:25:03.411Z,18.73
2022-12-26T09:26:09.266Z,18.98
2022-12-26T09:27:11.593Z,18.70
2022-12-26T09:28:14.023Z,17.58
2022-12-26T09:29:16.348Z,18.30
2022-12-26T09:30:18.740Z,18.88
2022-12-26T09:31:24.088Z,17.23
2022-12-26T09:32:26.480Z,17.67
2022-12-26T09:33:30.583Z,17.52
2022-12-26T09:34:32.945Z,17.67
2022-12-26T09:35:35.325Z,17.98
2022-12-26T09:36:38.900Z,17.95
2022-12-26T09:37:41.386Z,17.40
2022-12-26T09:38:44.938Z,16.50
2022-12-26T09:39:47.299Z,17.27
2022-12-26T09:41:10.934Z,17.00
2022-12-26T09:42:54.493Z,15.60
2022-12-26T09:44:15.264Z,14.18
2022-12-26T09:45:25.346Z,14.50
2022-12-26T09:46:39.250Z,15.23
2022-12-26T09:48:04.205Z,22.38
2022-12-26T09:49:13.714Z,20.70
2022-12-26T09:50:29.429Z,18.42
2022-12-26T09:51:34.383Z,17.63
2022-12-26T09:52:50.600Z,17.45
2022-12-26T09:53:54.616Z,18.08
2022-12-26T09:55:00.818Z,17.83
2022-12-26T09:56:10.899Z,17.75
2022-12-26T09:57:29.325Z,16.50
2022-12-26T09:58:34.063Z,17.25
2022-12-26T09:59:48.178Z,16.90
2022-12-26T10:00:59.130Z,17.10
2022-12-26T10:02:01.734Z,17.17
2022-12-26T10:03:04.559Z,17.10
2022-12-26T10:04:28.242Z,17.38
2022-12-26T10:05:38.749Z,16.58
2022-12-26T10:06:48.016Z,16.60
2022-12-26T10:07:58.045Z,16.50
2022-12-26T10:09:08.829Z,16.65
2022-12-26T10:10:12.731Z,16.30
2022-12-26T10:11:20.747Z,16.23
2022-12-26T10:12:55.776Z,16.05
2022-12-26T10:14:25.274Z,15.77
2022-12-26T10:15:40.213Z,16.65
2022-12-26T10:17:00.532Z,15.55
2022-12-26T10:18:13.250Z,15.20
2022-12-26T10:19:59.029Z,11.35
2022-12-26T10:21:33.584Z,10.57
2022-12-26T10:22:42.023Z,9.80
2022-12-26T10:24:08.571Z,9.50
2022-12-26T10:25:39.271Z,10.52
2022-12-26T10:26:46.303Z,12.40
2022-12-26T10:27:50.909Z,12.23
2022-12-26T10:29:02.645Z,13.52
2022-12-26T10:30:09.167Z,14.18
2022-12-26T10:31:22.609Z,14.18
2022-12-26T10:32:37.870Z,12.52
2022-12-26T10:33:54.153Z,13.80
2022-12-26T10:34:58.796Z,13.27
2022-12-26T10:36:01.556Z,14.10
2022-12-26T10:37:37.339Z,13.50
2022-12-26T10:38:46.723Z,14.32
2022-12-26T10:40:00.928Z,13.00
2022-12-26T10:41:25.493Z,13.48
2022-12-26T10:43:01.039Z,13.20
2022-12-26T10:44:03.578Z,13.30
2022-12-26T10:45:19.835Z,12.38
2022-12-26T10:46:37.362Z,6.18
2022-12-26T10:47:42.600Z,129.57
2022-12-26T10:48:45.486Z,63.78
2022-12-26T10:49:48.557Z,50.65
2022-12-26T10:50:51.063Z,42.78
2022-12-26T10:51:56.110Z,42.60
2022-12-26T10:53:00.265Z,35.03
2022-12-26T10:54:03.753Z,34.10
2022-12-26T10:55:28.082Z,31.70
2022-12-26T10:56:31.062Z,31.38
2022-12-26T10:57:36.838Z,27.65
2022-12-26T10:58:40.938Z,23.73
2022-12-26T10:59:49.641Z,26.65
2022-12-26T11:00:52.067Z,21.63
2022-12-26T11:01:54.376Z,19.50
2022-12-26T11:03:05.330Z,18.67
2022-12-26T11:05:02.006Z,17.63
2022-12-26T11:06:07.400Z,20.77
2022-12-26T11:07:12.927Z,14.02
2022-12-26T11:08:39.121Z,13.88
2022-12-26T11:09:46.034Z,11.27
2022-12-26T11:11:20.237Z,10.95
2022-12-26T11:12:40.427Z,9.73
2022-12-26T11:13:49.001Z,8.60
2022-12-26T11:14:59.190Z,10.18
2022-12-26T11:16:01.924Z,82.55
2022-12-26T11:17:08.972Z,78.25
2022-12-26T11:18:27.686Z,22.20
2022-12-26T11:19:37.103Z,22.90
2022-12-26T11:20:39.404Z,12.90
2022-12-26T11:21:41.708Z,12.30
2022-12-26T11:22:45.076Z,9.85
2022-12-26T11:23:52.482Z,8.98
2022-12-26T11:25:24.939Z,8.02
2022-12-26T11:26:32.280Z,7.05
2022-12-26T11:27:35.094Z,7.20
2022-12-26T11:28:38.310Z,6.28
2022-12-26T11:29:42.503Z,5.60
2022-12-26T11:30:47.979Z,5.03
2022-12-26T11:32:01.854Z,5.05
2022-12-26T11:33:18.041Z,4.30
2022-12-26T11:34:46.135Z,3.50
2022-12-26T11:35:57.760Z,3.65
2022-12-26T11:37:00.636Z,3.00
2022-12-26T11:38:13.483Z,3.88
2022-12-26T11:39:24.466Z,8.27
2022-12-26T11:41:07.107Z,78.75
2022-12-26T11:42:19.632Z,44.55
2022-12-26T11:43:25.648Z,20.80
2022-12-26T11:44:34.998Z,17.45
2022-12-26T11:45:43.781Z,14.10
2022-12-26T11:47:00.821Z,9.48
2022-12-26T11:48:08.486Z,9.35
2022-12-26T11:49:41.429Z,9.63
2022-12-26T11:50:46.081Z,8.98
2022-12-26T11:51:54.155Z,8.23
2022-12-26T11:53:01.799Z,7.57
2022-12-26T11:54:31.792Z,7.07
2022-12-26T11:55:39.099Z,6.78
2022-12-26T11:56:41.594Z,7.13
2022-12-26T11:58:15.856Z,5.70
2022-12-26T11:59:21.991Z,5.90
2022-12-26T12:00:25.289Z,5.90
2022-12-26T12:01:27.808Z,5.70
2022-12-26T12:02:32.088Z,5.28
2022-12-26T12:03:36.382Z,5.20
2022-12-26T12:04:38.765Z,4.90
2022-12-26T12:05:54.699Z,4.32
2022-12-26T12:07:09.244Z,3.90
2022-12-26T12:08:48.844Z,15.80
2022-12-26T12:10:05.276Z,113.80
2022-12-26T12:11:30.454Z,28.17
2022-12-26T12:12:51.297Z,37.78
2022-12-26T12:14:06.336Z,29.55
2022-12-26T12:15:24.923Z,23.90
2022-12-26T12:16:49.918Z,18.90
2022-12-26T12:18:34.960Z,14.48
2022-12-26T12:19:49.519Z,12.45
2022-12-26T12:21:13.268Z,11.35
2022-12-26T12:22:36.068Z,11.30
2022-12-26T12:24:15.749Z,10.30
2022-12-26T12:25:28.675Z,10.50
2022-12-26T12:26:57.612Z,9.60
2022-12-26T12:28:34.448Z,9.32
2022-12-26T12:29:48.922Z,8.95
2022-12-26T12:31:06.162Z,9.18
2022-12-26T12:32:25.170Z,8.07
2022-12-26T12:33:57.279Z,7.75
2022-12-26T12:35:14.833Z,8.32
2022-12-26T12:36:31.527Z,7.55
2022-12-26T12:38:00.565Z,7.15
2022-12-26T12:39:19.717Z,7.50
2022-12-26T12:40:43.525Z,6.38
2022-12-26T12:42:13.692Z,6.85
2022-12-26T12:43:33.060Z,6.88
2022-12-26T12:44:56.620Z,6.95
2022-12-26T12:46:19.346Z,6.75
2022-12-26T12:47:59.634Z,6.40
2022-12-26T12:49:23.863Z,6.97
2022-12-26T12:50:53.077Z,6.05
2022-12-26T12:52:13.320Z,5.97
2022-12-26T12:53:37.239Z,6.10
2022-12-26T12:54:59.805Z,6.35
2022-12-26T12:56:42.581Z,5.28
2022-12-26T12:58:07.666Z,6.40
2022-12-26T12:59:31.410Z,6.28
2022-12-26T13:00:48.952Z,4.78
2022-12-26T13:01:57.594Z,4.70
2022-12-26T13:03:23.509Z,5.50
2022-12-26T13:04:55.923Z,4.82
2022-12-26T13:06:22.721Z,4.50
2022-12-26T13:07:31.754Z,4.35
2022-12-26T13:08:45.916Z,4.10
2022-12-26T13:09:52.908Z,4.70
2022-12-26T13:11:01.467Z,4.30
2022-12-26T13:12:09.457Z,4.32
2022-12-26T13:13:24.671Z,3.97
2022-12-26T13:14:44.173Z,4.32
2022-12-26T13:15:51.309Z,4.90
2022-12-26T13:17:14.397Z,4.57
2022-12-26T13:18:23.482Z,4.10
2022-12-26T13:19:32.378Z,3.28
2022-12-26T13:20:41.996Z,3.78
2022-12-26T13:21:47.112Z,3.83
2022-12-26T13:23:15.221Z,3.78
2022-12-26T13:24:39.545Z,3.88
2022-12-26T13:25:48.927Z,3.90
2022-12-26T13:27:18.321Z,3.58
2022-12-26T13:28:29.370Z,3.60
2022-12-26T13:29:31.830Z,4.15
2022-12-26T13:30:34.375Z,4.93
2022-12-26T13:31:38.412Z,3.97
2022-12-26T13:32:46.301Z,4.03
2022-12-26T13:33:49.337Z,6.60
2022-12-26T13:34:54.691Z,6.68
2022-12-26T13:36:02.728Z,6.05
2022-12-26T13:37:05.059Z,5.82
2022-12-26T13:38:07.368Z,7.05
2022-12-26T13:39:12.434Z,6.75
2022-12-26T13:40:20.238Z,6.35
2022-12-26T13:41:43.326Z,5.70
2022-12-26T13:43:24.683Z,4.50
2022-12-26T13:44:27.620Z,3.70
2022-12-26T13:45:35.899Z,4.63
2022-12-26T13:46:41.859Z,4.70
2022-12-26T13:47:44.218Z,4.50
2022-12-26T13:48:55.120Z,4.85
2022-12-26T13:49:57.440Z,4.60
2022-12-26T13:51:02.550Z,4.15
2022-12-26T13:52:10.631Z,4.60
2022-12-26T13:53:24.996Z,4.28
2022-12-26T13:54:28.461Z,5.40
2022-12-26T13:55:41.980Z,6.75
2022-12-26T13:56:46.218Z,7.20
2022-12-26T13:58:09.266Z,6.50
2022-12-26T13:59:24.259Z,6.43
2022-12-26T14:00:47.189Z,6.90
2022-12-26T14:02:19.354Z,5.20
2022-12-26T14:03:52.391Z,6.40
2022-12-26T14:05:26.328Z,6.80
2022-12-26T14:06:43.288Z,6.35
2022-12-26T14:08:03.204Z,6.63
2022-12-26T14:09:17.049Z,6.45
2022-12-26T14:10:39.294Z,6.88
2022-12-26T14:11:59.879Z,6.93
2022-12-26T14:13:49.804Z,6.63
2022-12-26T14:15:16.800Z,5.93
2022-12-26T14:16:36.007Z,6.15
2022-12-26T14:17:54.803Z,6.50
2022-12-26T14:19:39.932Z,6.07
2022-12-26T14:21:08.034Z,6.45
2022-12-26T14:22:20.378Z,6.47
2022-12-26T14:23:41.002Z,6.22
2022-12-26T14:24:54.733Z,6.60
2022-12-26T14:26:26.585Z,6.78
2022-12-26T14:27:52.101Z,6.43
2022-12-26T14:29:22.179Z,6.55
2022-12-26T14:30:38.878Z,6.13
2022-12-26T14:32:01.975Z,6.28
2022-12-26T14:33:22.753Z,6.15
2022-12-26T14:34:46.492Z,6.47
2022-12-26T14:36:19.096Z,6.13
2022-12-26T14:37:42.114Z,6.30
2022-12-26T14:38:55.259Z,6.28
2022-12-26T14:40:18.843Z,6.55
2022-12-26T14:41:40.407Z,6.60
2022-12-26T14:43:14.230Z,6.18
2022-12-26T14:44:36.622Z,6.47
2022-12-26T14:45:41.722Z,5.85
2022-12-26T14:46:44.063Z,6.70
2022-12-26T14:47:48.790Z,6.10
2022-12-26T14:48:54.883Z,6.22
2022-12-26T14:49:57.335Z,6.22
2022-12-26T14:51:14.490Z,5.53
2022-12-26T14:52:25.624Z,6.28
2022-12-26T14:53:34.969Z,6.50
2022-12-26T14:54:39.507Z,7.13
2022-12-26T14:55:48.935Z,8.07
2022-12-26T14:56:52.563Z,7.28
2022-12-26T14:57:55.304Z,7.03
2022-12-26T14:59:28.547Z,6.82
2022-12-26T15:00:32.454Z,7.97
2022-12-26T15:01:34.835Z,7.93
2022-12-26T15:02:42.102Z,7.30
2022-12-26T15:03:59.875Z,7.18
2022-12-26T15:05:13.958Z,7.65
2022-12-26T15:06:19.112Z,6.28
2022-12-26T15:07:59.504Z,7.15
2022-12-26T15:09:35.793Z,5.95
2022-12-26T15:10:43.745Z,7.47
2022-12-26T15:12:07.214Z,7.18
2022-12-26T15:13:48.903Z,7.40
2022-12-26T15:15:21.948Z,7.03
2022-12-26T15:16:57.745Z,5.85
2022-12-26T15:18:05.949Z,6.22
2022-12-26T15:19:45.465Z,7.10
2022-12-26T15:21:25.416Z,7.10
2022-12-26T15:22:39.838Z,6.75
2022-12-26T15:24:03.764Z,7.57
2022-12-26T15:25:47.552Z,6.70
2022-12-26T15:27:01.609Z,27.15
2022-12-26T15:28:33.406Z,21.50
2022-12-26T15:30:02.586Z,12.40
2022-12-26T15:31:11.963Z,35.20
2022-12-26T15:32:55.505Z,28.15
2022-12-26T15:34:11.445Z,14.65
2022-12-26T15:35:27.911Z,11.18
2022-12-26T15:36:58.190Z,7.18
2022-12-26T15:38:17.389Z,7.78
2022-12-26T15:39:32.466Z,7.68
2022-12-26T15:41:04.110Z,5.85
2022-12-26T15:42:44.571Z,5.75
2022-12-26T15:44:08.573Z,9.30
2022-12-26T15:45:28.352Z,6.10
2022-12-26T15:46:36.321Z,6.80
2022-12-26T15:47:52.028Z,6.47
2022-12-26T15:49:30.660Z,6.25